createdAt,value
2022-10-31T00:01:34.667Z,8.52
2022-10-31T00:04:02.280Z,8.50
2022-10-31T00:06:30.064Z,8.48
2022-10-31T00:09:01.289Z,8.44
2022-10-31T00:11:29.383Z,8.39
2022-10-31T00:13:59.966Z,8.34
2022-10-31T00:16:28.972Z,8.25
2022-10-31T00:18:59.637Z,8.17
2022-10-31T00:21:27.490Z,8.11
2022-10-31T00:23:55.188Z,8.04
2022-10-31T00:26:22.806Z,8.02
2022-10-31T00:28:51.996Z,8.03
2022-10-31T00:31:19.731Z,8.02
2022-10-31T00:33:47.630Z,7.98
2022-10-31T00:36:20.276Z,7.95
2022-10-31T00:38:48.643Z,7.95
2022-10-31T00:41:17.846Z,7.92
2022-10-31T00:43:45.796Z,7.88
2022-10-31T00:46:14.525Z,7.86
2022-10-31T00:48:43.438Z,7.82
2022-10-31T00:51:11.501Z,7.78
2022-10-31T00:53:40.960Z,7.75
2022-10-31T00:56:08.664Z,7.71
2022-10-31T00:58:36.367Z,7.68
2022-10-31T01:01:04.901Z,7.65
2022-10-31T01:03:33.984Z,7.64
2022-10-31T01:06:07.466Z,7.67
2022-10-31T01:08:37.158Z,7.72
2022-10-31T01:11:13.660Z,7.74
2022-10-31T01:13:44.047Z,7.75
2022-10-31T01:16:15.402Z,7.75
2022-10-31T01:18:43.672Z,7.74
2022-10-31T01:21:14.611Z,7.75
2022-10-31T01:23:42.513Z,7.73
2022-10-31T01:26:11.785Z,7.71
2022-10-31T01:28:51.024Z,7.70
2022-10-31T01:31:21.076Z,7.69
2022-10-31T01:33:49.020Z,7.70
2022-10-31T01:36:16.561Z,7.70
2022-10-31T01:38:45.143Z,7.67
2022-10-31T01:41:15.023Z,7.64
2022-10-31T01:43:43.806Z,7.62
2022-10-31T01:46:12.478Z,7.62
2022-10-31T01:48:43.337Z,7.62
2022-10-31T01:51:14.081Z,7.59
2022-10-31T01:53:44.732Z,7.57
2022-10-31T01:56:15.793Z,7.58
2022-10-31T01:58:45.189Z,7.57
2022-10-31T02:01:15.871Z,7.56
2022-10-31T02:03:44.782Z,7.55
2022-10-31T02:06:22.720Z,7.57
2022-10-31T02:08:52.463Z,7.57
2022-10-31T02:11:22.545Z,7.59
2022-10-31T02:13:50.522Z,7.60
2022-10-31T02:16:18.126Z,7.59
2022-10-31T02:18:45.760Z,7.57
2022-10-31T02:21:24.535Z,7.55
2022-10-31T02:24:10.121Z,7.51
2022-10-31T02:26:59.826Z,7.48
2022-10-31T02:30:00.035Z,7.45
2022-10-31T02:32:49.802Z,7.39
2022-10-31T02:35:45.219Z,7.33
2022-10-31T02:38:19.197Z,7.33
2022-10-31T02:41:02.829Z,7.36
2022-10-31T02:43:56.164Z,7.40
2022-10-31T02:46:43.954Z,7.44
2022-10-31T02:49:28.638Z,7.50
2022-10-31T02:51:56.337Z,7.54
2022-10-31T02:54:26.917Z,7.58
2022-10-31T02:57:07.888Z,7.62
2022-10-31T02:59:38.832Z,7.68
2022-10-31T03:02:38.455Z,7.72
2022-10-31T03:05:23.162Z,7.76
2022-10-31T03:08:06.819Z,7.77
2022-10-31T03:10:58.453Z,7.78
2022-10-31T03:13:42.368Z,7.79
2022-10-31T03:16:13.662Z,7.80
2022-10-31T03:18:43.939Z,7.79
2022-10-31T03:21:17.383Z,7.78
2022-10-31T03:23:48.392Z,7.78
2022-10-31T03:26:23.213Z,7.80
2022-10-31T03:28:58.476Z,7.82
2022-10-31T03:31:32.899Z,7.87
2022-10-31T03:34:03.224Z,7.90
2022-10-31T03:36:34.972Z,7.95
2022-10-31T03:39:07.262Z,8.00
2022-10-31T03:41:40.049Z,8.03
2022-10-31T03:44:13.956Z,8.06
2022-10-31T03:46:43.987Z,8.09
2022-10-31T03:49:14.223Z,8.13
2022-10-31T03:51:49.853Z,8.18
2022-10-31T03:54:39.422Z,8.22
2022-10-31T03:57:33.276Z,8.28
2022-10-31T04:00:10.177Z,8.34
2022-10-31T04:03:01.688Z,8.36
2022-10-31T04:05:31.900Z,8.37
2022-10-31T04:08:05.297Z,8.38
2022-10-31T04:10:35.718Z,8.40
2022-10-31T04:15:52.336Z,8.47
2022-10-31T04:18:20.310Z,8.51
2022-10-31T04:20:50.889Z,8.55
2022-10-31T04:23:25.560Z,8.58
2022-10-31T04:25:54.688Z,8.62
2022-10-31T04:28:22.787Z,8.66
2022-10-31T04:30:50.598Z,8.69
2022-10-31T04:33:18.330Z,8.72
2022-10-31T04:35:47.715Z,8.75
2022-10-31T04:38:15.324Z,8.78
2022-10-31T04:40:45.958Z,8.80
2022-10-31T04:43:32.495Z,8.82
2022-10-31T04:46:01.490Z,8.82
2022-10-31T04:48:29.449Z,8.84
2022-10-31T04:51:02.517Z,8.85
2022-10-31T04:53:30.377Z,8.89
2022-10-31T04:56:13.951Z,8.91
2022-10-31T04:58:45.490Z,8.93
2022-10-31T05:01:13.850Z,8.95
2022-10-31T05:03:41.707Z,8.96
2022-10-31T05:06:09.388Z,8.98
2022-10-31T05:08:38.309Z,9.01
2022-10-31T05:11:07.340Z,9.02
2022-10-31T05:13:35.155Z,9.05
2022-10-31T05:16:18.745Z,9.09
2022-10-31T05:19:02.319Z,9.12
2022-10-31T05:21:44.982Z,9.15
2022-10-31T05:24:12.886Z,9.18
2022-10-31T05:26:41.724Z,9.20
2022-10-31T05:29:10.663Z,9.23
2022-10-31T05:31:39.556Z,9.25
2022-10-31T05:34:08.361Z,9.26
2022-10-31T05:36:51.038Z,9.28
2022-10-31T05:39:23.044Z,9.29
2022-10-31T05:41:55.032Z,9.31
2022-10-31T05:44:28.527Z,9.32
2022-10-31T05:47:04.579Z,9.34
2022-10-31T05:49:48.235Z,9.36
2022-10-31T05:52:31.913Z,9.38
2022-10-31T05:55:05.613Z,9.40
2022-10-31T05:57:34.540Z,9.41
2022-10-31T06:00:06.253Z,9.42
2022-10-31T06:02:49.814Z,9.43
2022-10-31T06:05:26.800Z,9.44
2022-10-31T06:07:54.648Z,9.44
2022-10-31T06:10:23.017Z,9.47
2022-10-31T06:12:53.378Z,9.48
2022-10-31T06:15:34.052Z,9.50
2022-10-31T06:18:04.726Z,9.52
2022-10-31T06:20:36.976Z,9.54
2022-10-31T06:23:06.050Z,9.55
2022-10-31T06:25:34.729Z,9.55
2022-10-31T06:28:02.394Z,9.57
2022-10-31T06:30:38.090Z,9.59
2022-10-31T06:33:06.687Z,9.61
2022-10-31T06:35:36.657Z,9.61
2022-10-31T06:38:05.329Z,9.62
2022-10-31T06:40:38.131Z,9.63
2022-10-31T06:43:22.607Z,9.65
2022-10-31T06:45:51.998Z,9.65
2022-10-31T06:48:26.197Z,9.66
2022-10-31T06:51:13.320Z,9.67
2022-10-31T06:53:40.955Z,9.69
2022-10-31T06:56:09.946Z,9.72
2022-10-31T06:58:41.752Z,9.76
2022-10-31T07:01:10.282Z,9.80
2022-10-31T07:03:39.174Z,9.82
2022-10-31T07:06:07.079Z,9.85
2022-10-31T07:08:34.769Z,9.88
2022-10-31T07:11:02.810Z,9.89
2022-10-31T07:13:31.097Z,9.90
2022-10-31T07:16:07.506Z,9.94
2022-10-31T07:18:36.359Z,10.01
2022-10-31T07:21:04.779Z,10.08
2022-10-31T07:23:33.173Z,10.14
2022-10-31T07:26:17.006Z,10.20
2022-10-31T07:28:48.985Z,10.27
2022-10-31T07:31:19.752Z,10.36
2022-10-31T07:33:47.362Z,10.45
2022-10-31T07:36:29.999Z,10.49
2022-10-31T07:39:03.282Z,10.54
2022-10-31T07:41:31.797Z,10.58
2022-10-31T07:44:00.168Z,10.66
2022-10-31T07:46:47.747Z,10.76
2022-10-31T07:49:31.274Z,10.87
2022-10-31T07:52:15.648Z,10.96
2022-10-31T07:54:59.290Z,11.03
2022-10-31T07:57:31.902Z,11.09
2022-10-31T08:00:02.149Z,11.16
2022-10-31T08:02:30.902Z,11.25
2022-10-31T08:05:15.911Z,11.33
2022-10-31T08:08:00.554Z,11.38
2022-10-31T08:10:28.904Z,11.42
2022-10-31T08:13:08.902Z,11.47
2022-10-31T08:15:40.767Z,11.52
2022-10-31T08:18:14.705Z,11.57
2022-10-31T08:20:43.992Z,11.63
2022-10-31T08:23:13.057Z,11.69
2022-10-31T08:25:43.213Z,11.74
2022-10-31T08:28:12.602Z,11.79
2022-10-31T08:30:41.986Z,11.83
2022-10-31T08:33:25.677Z,11.87
2022-10-31T08:36:09.356Z,11.93
2022-10-31T08:38:50.679Z,11.98
2022-10-31T08:41:18.580Z,12.02
2022-10-31T08:43:47.326Z,12.08
2022-10-31T08:46:17.093Z,12.15
2022-10-31T08:48:45.333Z,12.24
2022-10-31T08:51:13.740Z,12.30
2022-10-31T08:53:41.451Z,12.37
2022-10-31T08:56:32.133Z,12.47
2022-10-31T08:59:00.774Z,12.56
2022-10-31T09:01:38.703Z,12.65
2022-10-31T09:04:07.247Z,12.73
2022-10-31T09:06:34.861Z,12.81
2022-10-31T09:09:02.854Z,12.89
2022-10-31T09:11:33.460Z,12.96
2022-10-31T09:14:17.018Z,13.01
2022-10-31T09:17:00.656Z,13.07
2022-10-31T09:19:41.456Z,13.11
2022-10-31T09:22:09.048Z,13.15
2022-10-31T09:24:36.600Z,13.19
2022-10-31T09:27:04.300Z,13.25
2022-10-31T09:29:33.141Z,13.34
2022-10-31T09:32:01.557Z,13.41
2022-10-31T09:34:30.830Z,13.46
2022-10-31T09:37:14.437Z,13.55
2022-10-31T09:39:42.078Z,13.62
2022-10-31T09:42:42.786Z,13.71
2022-10-31T09:45:26.197Z,13.78
2022-10-31T09:48:00.073Z,13.88
2022-10-31T09:50:41.684Z,13.96
2022-10-31T09:53:39.486Z,14.05
2022-10-31T09:56:12.899Z,14.12
2022-10-31T09:58:47.437Z,14.21
2022-10-31T10:01:37.669Z,14.27
2022-10-31T10:04:18.336Z,14.33
2022-10-31T10:06:57.060Z,14.41
2022-10-31T10:09:45.501Z,14.48
2022-10-31T10:13:03.465Z,14.60
2022-10-31T10:15:57.564Z,14.74
2022-10-31T10:18:57.185Z,14.85
2022-10-31T10:21:50.502Z,14.92
2022-10-31T10:24:50.467Z,14.99
2022-10-31T10:27:43.486Z,15.05
2022-10-31T10:30:18.753Z,15.13
2022-10-31T10:33:11.494Z,15.20
2022-10-31T10:35:45.115Z,15.30
2022-10-31T10:38:24.086Z,15.38
2022-10-31T10:40:54.761Z,15.48
2022-10-31T10:43:25.582Z,15.55
2022-10-31T10:46:41.189Z,15.61
2022-10-31T10:49:33.736Z,15.64
2022-10-31T10:52:39.684Z,15.68
2022-10-31T10:55:39.809Z,15.73
2022-10-31T10:58:09.487Z,15.74
2022-10-31T11:00:39.976Z,15.78
2022-10-31T11:03:08.805Z,15.82
2022-10-31T11:06:02.416Z,15.89
2022-10-31T11:08:32.707Z,15.97
2022-10-31T11:11:09.382Z,16.04
2022-10-31T11:13:37.946Z,16.12
2022-10-31T11:16:09.642Z,16.19
2022-10-31T11:18:46.717Z,16.25
2022-10-31T11:21:33.128Z,16.31
2022-10-31T11:24:18.432Z,16.35
2022-10-31T11:26:49.044Z,16.40
2022-10-31T11:29:22.644Z,16.45
2022-10-31T11:31:54.084Z,16.55
2022-10-31T11:34:30.846Z,16.57
2022-10-31T11:37:21.367Z,16.59
2022-10-31T11:39:55.215Z,16.46
2022-10-31T11:42:43.878Z,16.24
2022-10-31T11:45:23.708Z,16.03
2022-10-31T11:47:59.539Z,15.86
2022-10-31T11:50:40.173Z,15.70
2022-10-31T11:53:27.665Z,15.57
2022-10-31T11:56:16.665Z,15.55
2022-10-31T11:58:44.374Z,15.65
2022-10-31T12:01:29.431Z,15.64
2022-10-31T12:04:08.429Z,15.63
2022-10-31T12:06:41.960Z,15.59
2022-10-31T12:09:28.837Z,15.48
2022-10-31T12:12:06.429Z,15.37
2022-10-31T12:14:39.928Z,15.24
2022-10-31T12:17:26.750Z,15.10
2022-10-31T12:20:12.978Z,14.95
2022-10-31T12:23:03.121Z,14.81
2022-10-31T12:25:47.043Z,14.65
2022-10-31T12:28:39.025Z,14.58
2022-10-31T12:31:26.386Z,14.48
2022-10-31T12:34:00.150Z,14.43
2022-10-31T12:36:44.663Z,14.36
2022-10-31T12:39:44.308Z,14.25
2022-10-31T12:42:30.951Z,14.12
2022-10-31T12:45:13.312Z,13.96
2022-10-31T12:48:05.589Z,13.94
2022-10-31T12:50:45.817Z,13.88
2022-10-31T12:53:33.813Z,13.85
2022-10-31T12:56:21.789Z,13.83
2022-10-31T12:59:08.231Z,13.79
2022-10-31T13:01:43.033Z,13.75
2022-10-31T13:04:32.759Z,13.72
2022-10-31T13:07:08.775Z,13.66
2022-10-31T13:09:43.251Z,13.61
2022-10-31T13:12:14.916Z,13.56
2022-10-31T13:15:01.763Z,13.56
2022-10-31T13:17:39.415Z,13.56
2022-10-31T13:20:39.111Z,13.55
2022-10-31T13:23:48.544Z,13.51
2022-10-31T13:26:15.431Z,13.48
2022-10-31T13:29:12.125Z,13.45
2022-10-31T13:31:42.725Z,13.41
2022-10-31T13:34:20.601Z,13.37
2022-10-31T13:37:02.961Z,13.34
2022-10-31T13:40:05.569Z,13.32
2022-10-31T13:42:50.282Z,13.28
2022-10-31T13:45:23.926Z,13.23
2022-10-31T13:48:14.462Z,13.20
2022-10-31T13:50:44.035Z,13.16
2022-10-31T13:53:18.784Z,13.11
2022-10-31T13:55:49.617Z,13.08
2022-10-31T13:58:22.431Z,13.00
2022-10-31T14:01:23.202Z,12.94
2022-10-31T14:04:25.646Z,12.87
2022-10-31T14:07:12.201Z,12.84
2022-10-31T14:09:57.105Z,12.81
2022-10-31T14:12:42.946Z,12.79
2022-10-31T14:15:25.573Z,12.77
2022-10-31T14:18:06.506Z,12.71
2022-10-31T14:20:44.679Z,12.66
2022-10-31T14:23:33.643Z,12.65
2022-10-31T14:26:19.105Z,12.65
2022-10-31T14:28:48.428Z,12.60
2022-10-31T14:31:45.563Z,12.59
2022-10-31T14:34:23.787Z,12.55
2022-10-31T14:37:20.086Z,12.49
2022-10-31T14:40:13.581Z,12.47
2022-10-31T14:42:57.283Z,12.43
2022-10-31T14:46:01.367Z,12.40
2022-10-31T14:48:47.716Z,12.41
2022-10-31T14:51:20.397Z,12.38
2022-10-31T14:53:51.452Z,12.36
2022-10-31T14:56:26.241Z,12.35
2022-10-31T14:58:57.614Z,12.30
2022-10-31T15:01:32.718Z,12.27
2022-10-31T15:04:23.048Z,12.26
2022-10-31T15:07:12.933Z,12.23
2022-10-31T15:09:43.566Z,12.21
2022-10-31T15:12:34.796Z,12.17
2022-10-31T15:15:21.081Z,12.15
2022-10-31T15:18:16.822Z,12.13
2022-10-31T15:20:46.516Z,12.11
2022-10-31T15:23:32.604Z,12.12
2022-10-31T15:26:06.392Z,12.14
2022-10-31T15:28:33.951Z,12.17
2022-10-31T15:31:03.317Z,12.20
2022-10-31T15:33:38.223Z,12.22
2022-10-31T15:36:07.393Z,12.21
2022-10-31T15:38:35.145Z,12.20
2022-10-31T15:41:07.306Z,12.24
2022-10-31T15:43:38.882Z,12.31
2022-10-31T15:46:09.992Z,12.33
2022-10-31T15:48:39.314Z,12.35
2022-10-31T15:51:07.381Z,12.41
2022-10-31T15:53:54.129Z,12.41
2022-10-31T15:56:25.113Z,12.36
2022-10-31T15:58:54.621Z,12.35
2022-10-31T16:01:29.000Z,12.37
2022-10-31T16:04:04.786Z,12.33
2022-10-31T16:06:35.921Z,12.30
2022-10-31T16:09:06.080Z,12.24
2022-10-31T16:11:37.147Z,12.20
2022-10-31T16:14:15.013Z,12.18
2022-10-31T16:16:55.507Z,12.15
2022-10-31T16:19:36.233Z,12.19
2022-10-31T16:22:07.893Z,12.20
2022-10-31T16:24:47.748Z,12.18
2022-10-31T16:27:26.483Z,12.16
2022-10-31T16:29:54.133Z,12.10
2022-10-31T16:32:28.015Z,12.08
2022-10-31T16:35:00.822Z,12.04
2022-10-31T16:37:28.597Z,12.02
2022-10-31T16:39:56.389Z,11.99
2022-10-31T16:42:25.492Z,12.00
2022-10-31T16:44:54.217Z,12.01
2022-10-31T16:47:23.419Z,11.99
2022-10-31T16:49:53.797Z,11.99
2022-10-31T16:52:21.436Z,11.94
2022-10-31T16:54:49.510Z,11.90
2022-10-31T16:57:21.783Z,11.89
2022-10-31T16:59:54.566Z,11.87
2022-10-31T17:02:22.912Z,11.85
2022-10-31T17:04:53.927Z,11.83
2022-10-31T17:07:24.378Z,11.81
2022-10-31T17:09:51.989Z,11.78
2022-10-31T17:12:24.003Z,11.75
2022-10-31T17:14:52.888Z,11.75
2022-10-31T17:17:20.593Z,11.76
2022-10-31T17:19:48.428Z,11.73
2022-10-31T17:22:16.295Z,11.71
2022-10-31T17:24:43.919Z,11.69
2022-10-31T17:27:11.639Z,11.66
2022-10-31T17:29:39.298Z,11.63
2022-10-31T17:32:06.954Z,11.61
2022-10-31T17:34:34.571Z,11.58
2022-10-31T17:37:02.190Z,11.57
2022-10-31T17:39:29.818Z,11.58
2022-10-31T17:41:57.389Z,11.57
2022-10-31T17:44:25.153Z,11.55
2022-10-31T17:46:52.716Z,11.54
2022-10-31T17:49:21.722Z,11.54
2022-10-31T17:51:49.431Z,11.53
2022-10-31T17:54:18.763Z,11.53
2022-10-31T17:56:46.417Z,11.52
2022-10-31T17:59:14.607Z,11.51
2022-10-31T18:01:42.323Z,11.50
2022-10-31T18:04:11.449Z,11.50
2022-10-31T18:06:39.091Z,11.52
2022-10-31T18:09:06.803Z,11.53
2022-10-31T18:11:34.442Z,11.54
2022-10-31T18:14:02.051Z,11.56
2022-10-31T18:16:30.721Z,11.57
2022-10-31T18:19:02.145Z,11.57
2022-10-31T18:21:30.173Z,11.56
2022-10-31T18:23:59.830Z,11.57
2022-10-31T18:26:28.390Z,11.57
2022-10-31T18:28:56.395Z,11.59
2022-10-31T18:31:24.513Z,11.61
2022-10-31T18:33:54.044Z,11.62
2022-10-31T18:36:23.098Z,11.66
2022-10-31T18:38:50.727Z,11.71
2022-10-31T18:41:19.134Z,11.74
2022-10-31T18:43:46.799Z,11.79
2022-10-31T18:46:16.401Z,11.83
2022-10-31T18:48:45.019Z,11.84
2022-10-31T18:51:14.593Z,11.85
2022-10-31T18:53:42.192Z,11.88
2022-10-31T18:56:11.063Z,11.91
2022-10-31T18:58:38.721Z,11.91
2022-10-31T19:01:11.893Z,11.90
2022-10-31T19:03:40.155Z,11.89
2022-10-31T19:06:09.646Z,11.86
2022-10-31T19:08:38.750Z,11.81
2022-10-31T19:11:09.203Z,11.84
2022-10-31T19:13:38.146Z,11.87
2022-10-31T19:16:12.035Z,11.87
2022-10-31T19:18:40.721Z,11.85
2022-10-31T19:21:16.620Z,11.87
2022-10-31T19:23:45.358Z,11.87
2022-10-31T19:26:14.237Z,11.86
2022-10-31T19:28:42.219Z,11.83
2022-10-31T19:31:10.412Z,11.84
2022-10-31T19:33:38.551Z,11.84
2022-10-31T19:36:15.273Z,11.79
2022-10-31T19:38:45.690Z,11.77
2022-10-31T19:41:15.951Z,11.75
2022-10-31T19:43:44.196Z,11.75
2022-10-31T19:46:22.101Z,11.67
2022-10-31T19:48:55.673Z,11.59
2022-10-31T19:51:23.352Z,11.58
2022-10-31T19:53:52.136Z,11.58
2022-10-31T19:56:22.199Z,11.57
2022-10-31T19:58:50.098Z,11.53
2022-10-31T20:01:20.735Z,11.52
2022-10-31T20:03:49.692Z,11.52
2022-10-31T20:06:36.122Z,11.47
2022-10-31T20:09:08.114Z,11.35
2022-10-31T20:11:38.638Z,11.24
2022-10-31T20:14:08.130Z,11.12
2022-10-31T20:16:35.924Z,11.00
2022-10-31T20:19:03.931Z,10.91
2022-10-31T20:21:35.154Z,10.85
2022-10-31T20:24:05.024Z,10.81
2022-10-31T20:26:33.796Z,10.75
2022-10-31T20:29:02.107Z,10.69
2022-10-31T20:31:33.895Z,10.65
2022-10-31T20:34:02.433Z,10.60
2022-10-31T20:36:30.943Z,10.53
2022-10-31T20:38:59.037Z,10.48
2022-10-31T20:41:26.727Z,10.46
2022-10-31T20:43:54.846Z,10.44
2022-10-31T20:46:25.768Z,10.41
2022-10-31T20:48:54.338Z,10.35
2022-10-31T20:51:25.729Z,10.30
2022-10-31T20:53:56.277Z,10.27
2022-10-31T20:56:25.871Z,10.25
2022-10-31T20:58:56.036Z,10.21
2022-10-31T21:01:28.902Z,10.17
2022-10-31T21:03:58.455Z,10.16
2022-10-31T21:06:27.287Z,10.18
2022-10-31T21:08:56.191Z,10.14
2022-10-31T21:11:26.523Z,10.13
2022-10-31T21:13:54.730Z,10.10
2022-10-31T21:16:25.744Z,10.06
2022-10-31T21:18:54.341Z,10.02
2022-10-31T21:21:32.098Z,9.99
2022-10-31T21:24:04.118Z,10.01
2022-10-31T21:26:35.839Z,10.02
2022-10-31T21:29:05.156Z,10.04
2022-10-31T21:31:33.187Z,10.07
2022-10-31T21:34:01.014Z,10.10
2022-10-31T21:36:28.654Z,10.12
2022-10-31T21:38:56.336Z,10.12
2022-10-31T21:41:25.847Z,10.13
2022-10-31T21:43:54.562Z,10.16
2022-10-31T21:46:25.227Z,10.19
2022-10-31T21:48:53.977Z,10.21
2022-10-31T21:51:25.974Z,10.23
2022-10-31T21:54:09.495Z,10.24
2022-10-31T21:56:37.464Z,10.26
2022-10-31T21:59:06.004Z,10.26
2022-10-31T22:01:34.646Z,10.26
2022-10-31T22:04:03.460Z,10.27
2022-10-31T22:06:31.150Z,10.28
2022-10-31T22:09:00.138Z,10.28
2022-10-31T22:11:28.687Z,10.28
2022-10-31T22:13:59.664Z,10.29
2022-10-31T22:16:29.031Z,10.30
2022-10-31T22:18:59.901Z,10.27
2022-10-31T22:21:28.711Z,10.24
2022-10-31T22:24:01.910Z,10.24
2022-10-31T22:26:33.204Z,10.25
2022-10-31T22:29:04.330Z,10.26
2022-10-31T22:31:33.524Z,10.27
2022-10-31T22:34:01.173Z,10.27
2022-10-31T22:36:30.482Z,10.26
2022-10-31T22:38:59.044Z,10.24
2022-10-31T22:41:29.590Z,10.24
2022-10-31T22:43:57.901Z,10.25
2022-10-31T22:46:28.205Z,10.25
2022-10-31T22:48:58.817Z,10.25
2022-10-31T22:51:32.482Z,10.25
2022-10-31T22:54:00.836Z,10.26
2022-10-31T22:56:31.861Z,10.26
2022-10-31T22:59:00.488Z,10.26
2022-10-31T23:01:32.037Z,10.27
2022-10-31T23:04:01.575Z,10.27
2022-10-31T23:06:31.330Z,10.28
2022-10-31T23:09:01.021Z,10.27
2022-10-31T23:11:33.119Z,10.27
2022-10-31T23:14:09.856Z,10.25
2022-10-31T23:16:57.906Z,10.20
2022-10-31T23:19:28.074Z,10.20
2022-10-31T23:22:04.785Z,10.21
2022-10-31T23:24:34.331Z,10.22
2022-10-31T23:27:09.643Z,10.22
2022-10-31T23:29:55.228Z,10.22
2022-10-31T23:32:27.735Z,10.23
2022-10-31T23:35:00.779Z,10.22
2022-10-31T23:37:31.302Z,10.19
2022-10-31T23:39:59.471Z,10.17
2022-10-31T23:42:28.120Z,10.16
2022-10-31T23:44:56.267Z,10.18
2022-10-31T23:47:24.064Z,10.19
2022-10-31T23:49:51.737Z,10.21
2022-10-31T23:52:19.538Z,10.20
2022-10-31T23:54:47.612Z,10.20
2022-10-31T23:57:16.436Z,10.20
2022-10-31T23:59:44.282Z,10.21
